createdAt,value
2022-08-03T00:00:26.691Z,50.21
2022-08-03T00:02:53.559Z,50.46
2022-08-03T00:05:20.317Z,50.17
2022-08-03T00:07:46.912Z,50.07
2022-08-03T00:10:16.326Z,49.92
2022-08-03T00:12:43.018Z,50.16
2022-08-03T00:15:11.370Z,50.68
2022-08-03T00:17:52.461Z,50.45
2022-08-03T00:20:23.558Z,50.67
2022-08-03T00:22:50.500Z,50.53
2022-08-03T00:25:17.631Z,50.83
2022-08-03T00:27:44.380Z,50.45
2022-08-03T00:30:11.810Z,50.47
2022-08-03T00:32:38.828Z,51.21
2022-08-03T00:35:27.361Z,51.39
2022-08-03T00:37:59.322Z,51.10
2022-08-03T00:40:26.521Z,51.42
2022-08-03T00:42:59.259Z,51.18
2022-08-03T00:45:32.905Z,51.06
2022-08-03T00:48:00.175Z,51.25
2022-08-03T00:50:30.889Z,51.48
2022-08-03T00:52:59.869Z,51.66
2022-08-03T00:55:26.874Z,51.64
2022-08-03T00:57:54.540Z,51.39
2022-08-03T01:00:24.114Z,51.04
2022-08-03T01:02:51.758Z,50.95
2022-08-03T01:05:19.216Z,50.86
2022-08-03T01:08:16.876Z,51.06
2022-08-03T01:11:10.321Z,51.02
2022-08-03T01:14:28.252Z,51.00
2022-08-03T01:17:04.123Z,50.63
2022-08-03T01:19:52.822Z,50.99
2022-08-03T01:22:40.698Z,50.48
2022-08-03T01:25:17.790Z,50.78
2022-08-03T01:28:19.578Z,50.85
2022-08-03T01:30:47.945Z,50.63
2022-08-03T01:33:24.322Z,50.58
2022-08-03T01:35:59.050Z,50.17
2022-08-03T01:38:32.125Z,49.90
2022-08-03T01:41:08.928Z,49.79
2022-08-03T01:44:26.968Z,50.01
2022-08-03T01:46:26.326Z,50.22
2022-08-03T01:48:54.948Z,49.33
2022-08-03T01:51:23.636Z,50.26
2022-08-03T01:54:11.564Z,49.60
2022-08-03T01:56:41.174Z,49.28
2022-08-03T01:59:10.067Z,50.23
2022-08-03T02:02:15.593Z,50.32
2022-08-03T02:04:26.643Z,50.32
2022-08-03T02:07:02.885Z,50.23
2022-08-03T02:09:32.194Z,50.53
2022-08-03T02:11:59.204Z,50.71
2022-08-03T02:14:28.096Z,51.11
2022-08-03T02:16:56.040Z,50.79
2022-08-03T02:19:25.041Z,50.99
2022-08-03T02:21:57.387Z,50.90
2022-08-03T02:24:28.861Z,51.02
2022-08-03T02:26:56.844Z,51.05
2022-08-03T02:29:39.457Z,51.11
2022-08-03T02:32:12.535Z,51.42
2022-08-03T02:34:42.663Z,51.58
2022-08-03T02:37:11.840Z,51.16
2022-08-03T02:39:41.783Z,51.47
2022-08-03T02:42:12.233Z,51.91
2022-08-03T02:44:41.616Z,51.55
2022-08-03T02:47:11.376Z,50.83
2022-08-03T02:49:51.076Z,51.46
2022-08-03T02:52:21.591Z,51.35
2022-08-03T02:54:51.388Z,51.03
2022-08-03T02:57:20.210Z,51.09
2022-08-03T02:59:47.788Z,50.80
2022-08-03T03:02:16.787Z,50.99
2022-08-03T03:05:51.159Z,50.39
2022-08-03T03:07:46.872Z,50.59
2022-08-03T03:10:21.539Z,50.48
2022-08-03T03:12:50.549Z,50.30
2022-08-03T03:15:17.437Z,50.74
2022-08-03T03:17:44.768Z,50.93
2022-08-03T03:20:12.385Z,50.55
2022-08-03T03:22:41.283Z,51.23
2022-08-03T03:25:12.030Z,51.23
2022-08-03T03:27:39.968Z,51.27
2022-08-03T03:30:07.331Z,51.41
2022-08-03T03:32:34.214Z,51.58
2022-08-03T03:35:01.314Z,51.26
2022-08-03T03:37:28.134Z,51.84
2022-08-03T03:39:55.317Z,51.75
2022-08-03T03:42:22.855Z,51.88
2022-08-03T03:44:49.535Z,51.57
2022-08-03T03:47:16.660Z,51.32
2022-08-03T03:49:44.006Z,51.55
2022-08-03T03:52:11.003Z,51.83
2022-08-03T03:54:45.298Z,51.92
2022-08-03T03:57:13.134Z,51.68
2022-08-03T03:59:41.900Z,51.97
2022-08-03T04:02:09.766Z,52.01
2022-08-03T04:04:56.208Z,51.80
2022-08-03T04:07:44.135Z,52.09
2022-08-03T04:10:37.380Z,52.34
2022-08-03T04:13:10.002Z,52.57
2022-08-03T04:15:39.795Z,52.58
2022-08-03T04:18:08.245Z,52.23
2022-08-03T04:20:37.581Z,53.22
2022-08-03T04:23:15.646Z,52.97
2022-08-03T04:25:43.996Z,52.94
2022-08-03T04:28:29.572Z,51.61
2022-08-03T04:31:01.352Z,51.21
2022-08-03T04:33:32.486Z,49.48
2022-08-03T04:36:03.395Z,48.85
2022-08-03T04:38:32.956Z,48.64
2022-08-03T04:41:01.176Z,49.16
2022-08-03T04:43:28.842Z,49.67
2022-08-03T04:45:56.956Z,48.63
2022-08-03T04:48:24.155Z,47.71
2022-08-03T04:50:51.337Z,47.15
2022-08-03T04:53:18.296Z,47.30
2022-08-03T04:55:46.560Z,46.64
2022-08-03T04:58:13.407Z,46.72
2022-08-03T05:00:40.095Z,47.88
2022-08-03T05:03:20.226Z,49.52
2022-08-03T05:05:52.592Z,48.90
2022-08-03T05:08:20.428Z,47.01
2022-08-03T05:10:54.767Z,47.40
2022-08-03T05:13:21.449Z,49.36
2022-08-03T05:15:49.324Z,48.09
2022-08-03T05:18:16.023Z,47.72
2022-08-03T05:20:42.698Z,48.06
2022-08-03T05:23:09.362Z,47.30
2022-08-03T05:25:36.022Z,47.80
2022-08-03T05:28:03.551Z,48.57
2022-08-03T05:30:33.638Z,49.10
2022-08-03T05:33:01.601Z,49.69
2022-08-03T05:36:01.622Z,49.73
2022-08-03T05:38:24.292Z,50.82
2022-08-03T05:40:57.520Z,51.03
2022-08-03T05:43:43.516Z,52.36
2022-08-03T05:46:13.078Z,53.00
2022-08-03T05:48:41.142Z,52.67
2022-08-03T05:51:11.539Z,53.38
2022-08-03T05:53:40.057Z,52.88
2022-08-03T05:56:13.997Z,53.43
2022-08-03T05:58:47.641Z,53.20
2022-08-03T06:01:16.307Z,51.90
2022-08-03T06:03:43.272Z,49.85
2022-08-03T06:06:10.065Z,49.23
2022-08-03T06:08:37.154Z,48.34
2022-08-03T06:11:05.654Z,48.38
2022-08-03T06:13:32.505Z,47.93
2022-08-03T06:15:59.401Z,47.29
2022-08-03T06:18:26.230Z,47.54
2022-08-03T06:20:53.170Z,48.39
2022-08-03T06:23:20.206Z,47.26
2022-08-03T06:25:47.579Z,47.98
2022-08-03T06:28:35.681Z,47.22
2022-08-03T06:31:01.981Z,45.92
2022-08-03T06:34:30.757Z,46.83
2022-08-03T06:36:15.818Z,46.70
2022-08-03T06:38:42.447Z,44.94
2022-08-03T06:41:09.245Z,45.82
2022-08-03T06:43:38.137Z,44.35
2022-08-03T06:46:24.489Z,44.19
2022-08-03T06:48:51.217Z,44.33
2022-08-03T06:51:18.997Z,45.17
2022-08-03T06:53:45.598Z,43.66
2022-08-03T06:56:12.248Z,43.79
2022-08-03T06:58:38.924Z,43.99
2022-08-03T07:01:05.669Z,44.38
2022-08-03T07:03:32.605Z,44.33
2022-08-03T07:05:59.875Z,44.14
2022-08-03T07:08:33.576Z,43.83
2022-08-03T07:11:00.718Z,42.97
2022-08-03T07:13:27.318Z,43.53
2022-08-03T07:15:56.549Z,42.99
2022-08-03T07:18:24.473Z,43.29
2022-08-03T07:20:58.212Z,43.64
2022-08-03T07:23:25.728Z,44.57
2022-08-03T07:25:52.744Z,44.11
2022-08-03T07:28:20.115Z,43.72
2022-08-03T07:30:47.464Z,43.98
2022-08-03T07:33:15.360Z,44.90
2022-08-03T07:35:42.293Z,44.58
2022-08-03T07:38:08.921Z,44.10
2022-08-03T07:40:35.830Z,43.75
2022-08-03T07:43:03.521Z,43.24
2022-08-03T07:45:31.518Z,43.47
2022-08-03T07:47:58.190Z,43.21
2022-08-03T07:50:25.484Z,43.13
2022-08-03T07:52:53.642Z,43.69
2022-08-03T07:55:22.599Z,43.10
2022-08-03T07:58:06.621Z,41.36
2022-08-03T08:00:34.053Z,41.54
2022-08-03T08:03:00.921Z,41.74
2022-08-03T08:05:28.230Z,40.98
2022-08-03T08:07:55.546Z,41.21
2022-08-03T08:10:22.407Z,42.32
2022-08-03T08:12:49.393Z,41.61
2022-08-03T08:15:16.336Z,42.38
2022-08-03T08:17:50.876Z,42.77
2022-08-03T08:20:22.460Z,43.52
2022-08-03T08:22:57.159Z,41.05
2022-08-03T08:25:25.361Z,42.80
2022-08-03T08:28:31.517Z,41.74
2022-08-03T08:30:38.881Z,42.09
2022-08-03T08:33:05.628Z,42.09
2022-08-03T08:35:32.370Z,42.95
2022-08-03T08:38:05.562Z,41.41
2022-08-03T08:40:32.810Z,37.76
2022-08-03T08:42:59.528Z,39.26
2022-08-03T08:45:26.761Z,41.49
2022-08-03T08:48:00.347Z,39.75
2022-08-03T08:50:28.754Z,38.81
2022-08-03T08:52:59.927Z,39.24
2022-08-03T08:55:26.942Z,39.33
2022-08-03T08:58:01.965Z,37.16
2022-08-03T09:00:30.886Z,37.38
2022-08-03T09:02:57.696Z,40.69
2022-08-03T09:05:36.273Z,37.41
2022-08-03T09:08:11.415Z,36.57
2022-08-03T09:10:38.163Z,39.16
2022-08-03T09:13:04.831Z,38.31
2022-08-03T09:15:33.363Z,40.29
2022-08-03T09:18:02.581Z,37.52
2022-08-03T09:20:34.502Z,35.43
2022-08-03T09:23:19.067Z,35.40
2022-08-03T09:26:00.061Z,35.64
2022-08-03T09:29:00.493Z,34.71
2022-08-03T09:31:32.140Z,35.33
2022-08-03T09:34:02.198Z,35.76
2022-08-03T09:36:40.807Z,34.67
2022-08-03T09:39:40.961Z,35.33
2022-08-03T09:42:23.773Z,36.32
2022-08-03T09:44:52.062Z,36.02
2022-08-03T09:47:29.571Z,36.79
2022-08-03T09:50:04.538Z,37.94
2022-08-03T09:52:39.100Z,37.94
2022-08-03T09:56:30.773Z,34.91
2022-08-03T09:58:06.997Z,35.86
2022-08-03T10:00:54.415Z,37.90
2022-08-03T10:03:21.312Z,38.43
2022-08-03T10:05:48.179Z,39.44
2022-08-03T10:08:16.308Z,36.89
2022-08-03T10:10:44.244Z,38.50
2022-08-03T10:13:16.422Z,37.59
2022-08-03T10:16:23.117Z,34.36
2022-08-03T10:18:29.977Z,35.33
2022-08-03T10:21:05.059Z,33.17
2022-08-03T10:23:35.739Z,35.75
2022-08-03T10:26:05.937Z,36.77
2022-08-03T10:28:44.719Z,37.59
2022-08-03T10:31:13.904Z,33.43
2022-08-03T10:33:50.955Z,35.15
2022-08-03T10:36:23.906Z,32.93
2022-08-03T10:38:55.274Z,31.62
2022-08-03T10:41:26.990Z,32.41
2022-08-03T10:43:58.768Z,32.02
2022-08-03T10:46:27.257Z,34.66
2022-08-03T10:48:56.516Z,35.22
2022-08-03T10:51:24.113Z,35.42
2022-08-03T10:53:54.964Z,31.79
2022-08-03T10:56:54.388Z,30.10
2022-08-03T10:59:46.135Z,28.52
2022-08-03T11:02:16.319Z,31.45
2022-08-03T11:04:45.264Z,32.55
2022-08-03T11:07:23.676Z,31.29
2022-08-03T11:09:55.369Z,32.73
2022-08-03T11:12:21.887Z,29.76
2022-08-03T11:15:21.506Z,29.35
2022-08-03T11:18:11.103Z,30.19
2022-08-03T11:20:52.167Z,30.36
2022-08-03T11:24:04.540Z,30.57
2022-08-03T11:26:33.804Z,32.92
2022-08-03T11:29:31.730Z,32.89
2022-08-03T11:31:58.725Z,30.86
2022-08-03T11:34:26.120Z,30.68
2022-08-03T11:37:28.534Z,31.07
2022-08-03T11:39:58.045Z,32.01
2022-08-03T11:42:24.943Z,32.92
2022-08-03T11:44:56.498Z,29.98
2022-08-03T11:47:26.949Z,32.79
2022-08-03T11:49:59.171Z,30.96
2022-08-03T11:52:28.729Z,32.82
2022-08-03T11:54:57.132Z,31.59
2022-08-03T11:59:01.235Z,29.56
2022-08-03T12:00:23.700Z,31.45
2022-08-03T12:03:10.797Z,31.43
2022-08-03T12:05:51.856Z,31.52
2022-08-03T12:08:27.908Z,33.10
2022-08-03T12:10:57.640Z,32.70
2022-08-03T12:14:44.927Z,33.43
2022-08-03T12:16:24.798Z,33.45
2022-08-03T12:19:06.676Z,29.61
2022-08-03T12:21:33.622Z,28.47
2022-08-03T12:24:05.135Z,31.25
2022-08-03T12:26:58.338Z,31.47
2022-08-03T12:29:25.921Z,32.22
2022-08-03T12:31:53.498Z,30.70
2022-08-03T12:34:20.212Z,32.20
2022-08-03T12:36:54.191Z,31.50
2022-08-03T12:39:24.977Z,30.64
2022-08-03T12:41:55.632Z,32.05
2022-08-03T12:44:33.486Z,29.61
2022-08-03T12:47:01.424Z,30.91
2022-08-03T12:49:30.490Z,31.79
2022-08-03T12:52:04.091Z,31.97
2022-08-03T12:54:35.996Z,26.46
2022-08-03T12:57:08.770Z,26.37
2022-08-03T12:59:49.861Z,28.37
2022-08-03T13:02:25.726Z,28.83
2022-08-03T13:04:54.753Z,25.14
2022-08-03T13:07:22.445Z,27.06
2022-08-03T13:09:50.180Z,28.53
2022-08-03T13:12:22.458Z,30.29
2022-08-03T13:14:57.348Z,31.20
2022-08-03T13:17:24.833Z,28.51
2022-08-03T13:19:52.008Z,27.69
2022-08-03T13:22:21.399Z,28.51
2022-08-03T13:24:51.396Z,28.09
2022-08-03T13:28:01.558Z,29.25
2022-08-03T13:30:06.198Z,27.76
2022-08-03T13:32:33.652Z,27.49
2022-08-03T13:35:00.361Z,28.01
2022-08-03T13:37:27.364Z,29.74
2022-08-03T13:39:58.697Z,29.68
2022-08-03T13:42:30.294Z,29.92
2022-08-03T13:44:57.057Z,30.43
2022-08-03T13:47:23.785Z,30.59
2022-08-03T13:49:59.631Z,31.40
2022-08-03T13:52:32.674Z,30.91
2022-08-03T13:55:00.067Z,28.06
2022-08-03T13:58:04.544Z,28.91
2022-08-03T14:00:28.052Z,30.58
2022-08-03T14:03:05.036Z,30.58
2022-08-03T14:05:32.526Z,30.45
2022-08-03T14:08:04.725Z,30.50
2022-08-03T14:10:39.603Z,30.99
2022-08-03T14:13:07.017Z,31.98
2022-08-03T14:15:38.035Z,32.77
2022-08-03T14:18:06.094Z,33.76
2022-08-03T14:20:38.798Z,34.02
2022-08-03T14:23:16.164Z,33.17
2022-08-03T14:25:50.151Z,34.31
2022-08-03T14:28:18.417Z,34.98
2022-08-03T14:30:45.493Z,34.81
2022-08-03T14:33:12.157Z,33.93
2022-08-03T14:35:38.782Z,34.33
2022-08-03T14:38:05.448Z,33.76
2022-08-03T14:40:32.329Z,31.62
2022-08-03T14:42:59.272Z,30.69
2022-08-03T14:45:26.051Z,31.10
2022-08-03T14:50:34.226Z,31.39
2022-08-03T14:50:45.491Z,31.65
2022-08-03T14:53:17.185Z,32.01
2022-08-03T14:55:49.863Z,32.04
2022-08-03T14:58:19.584Z,32.57
2022-08-03T15:00:48.096Z,32.81
2022-08-03T15:03:16.789Z,31.57
2022-08-03T15:05:43.865Z,32.58
2022-08-03T15:08:10.559Z,31.36
2022-08-03T15:10:44.400Z,31.70
2022-08-03T15:13:15.341Z,31.71
2022-08-03T15:15:42.314Z,32.01
2022-08-03T15:18:09.285Z,28.81
2022-08-03T15:20:44.314Z,26.97
2022-08-03T15:23:11.907Z,26.19
2022-08-03T15:26:28.424Z,26.80
2022-08-03T15:28:25.393Z,26.95
2022-08-03T15:30:53.027Z,26.78
2022-08-03T15:33:20.418Z,28.36
2022-08-03T15:35:47.870Z,27.38
2022-08-03T15:38:15.983Z,27.92
2022-08-03T15:40:42.781Z,26.44
2022-08-03T15:43:09.429Z,28.13
2022-08-03T15:45:36.965Z,28.64
2022-08-03T15:48:05.815Z,28.33
2022-08-03T15:50:32.929Z,26.97
2022-08-03T15:52:59.756Z,25.29
2022-08-03T15:55:26.728Z,26.20
2022-08-03T15:59:09.239Z,26.18
2022-08-03T16:00:41.657Z,28.63
2022-08-03T16:03:08.461Z,30.28
2022-08-03T16:05:36.146Z,31.75
2022-08-03T16:08:05.120Z,32.19
2022-08-03T16:10:33.713Z,32.94
2022-08-03T16:13:00.593Z,32.94
2022-08-03T16:15:27.700Z,32.07
2022-08-03T16:17:54.404Z,32.50
2022-08-03T16:20:30.827Z,32.19
2022-08-03T16:23:10.796Z,32.73
2022-08-03T16:25:42.519Z,33.88
2022-08-03T16:28:14.009Z,34.06
2022-08-03T16:30:42.895Z,33.55
2022-08-03T16:33:10.310Z,33.92
2022-08-03T16:35:37.527Z,33.36
2022-08-03T16:38:09.561Z,33.56
2022-08-03T16:40:36.912Z,33.93
2022-08-03T16:43:18.502Z,33.60
2022-08-03T16:45:47.320Z,33.61
2022-08-03T16:48:18.274Z,33.73
2022-08-03T16:50:45.443Z,34.87
2022-08-03T16:53:16.824Z,35.17
2022-08-03T16:55:52.372Z,35.86
2022-08-03T16:58:41.511Z,34.50
2022-08-03T17:03:42.700Z,33.91
2022-08-03T17:06:33.817Z,35.47
2022-08-03T17:09:01.969Z,35.47
2022-08-03T17:11:32.058Z,36.23
2022-08-03T17:14:00.508Z,35.25
2022-08-03T17:16:28.379Z,35.62
2022-08-03T17:19:03.985Z,35.54
2022-08-03T17:21:33.069Z,35.71
2022-08-03T17:24:19.826Z,36.26
2022-08-03T17:26:50.044Z,35.90
2022-08-03T17:29:22.976Z,36.05
2022-08-03T17:31:54.213Z,34.72
2022-08-03T17:34:26.570Z,35.80
2022-08-03T17:37:26.963Z,36.31
2022-08-03T17:39:59.845Z,35.78
2022-08-03T17:42:38.865Z,35.54
2022-08-03T17:45:07.099Z,34.02
2022-08-03T17:47:42.671Z,34.34
2022-08-03T17:50:25.123Z,34.92
2022-08-03T17:53:07.606Z,35.36
2022-08-03T17:55:57.043Z,35.75
2022-08-03T17:58:55.431Z,34.87
2022-08-03T18:02:16.641Z,35.36
2022-08-03T18:05:00.678Z,35.13
2022-08-03T18:07:40.946Z,34.02
2022-08-03T18:10:11.489Z,35.47
2022-08-03T18:12:59.825Z,35.59
2022-08-03T18:15:37.573Z,34.43
2022-08-03T18:18:11.222Z,34.74
2022-08-03T18:20:41.993Z,35.55
2022-08-03T18:23:11.683Z,35.86
2022-08-03T18:25:57.917Z,34.57
2022-08-03T18:28:27.328Z,34.02
2022-08-03T18:30:56.228Z,34.98
2022-08-03T18:34:16.919Z,35.12
2022-08-03T18:36:17.454Z,35.86
2022-08-03T18:38:49.319Z,35.88
2022-08-03T18:41:21.954Z,35.94
2022-08-03T18:44:08.264Z,35.44
2022-08-03T18:46:41.316Z,35.34
2022-08-03T18:49:15.994Z,35.09
2022-08-03T18:51:47.075Z,35.86
2022-08-03T18:54:45.460Z,35.79
2022-08-03T18:57:07.349Z,35.03
2022-08-03T18:59:46.242Z,35.23
2022-08-03T19:02:40.971Z,35.95
2022-08-03T19:05:19.172Z,35.75
2022-08-03T19:10:57.947Z,36.95
2022-08-03T19:13:38.447Z,36.45
2022-08-03T19:16:13.951Z,36.40
2022-08-03T19:18:50.089Z,36.95
2022-08-03T19:21:16.859Z,36.39
2022-08-03T19:23:47.588Z,36.72
2022-08-03T19:29:06.857Z,36.30
2022-08-03T19:31:59.696Z,36.42
2022-08-03T19:34:29.783Z,35.69
2022-08-03T19:36:59.792Z,36.23
2022-08-03T19:39:27.789Z,36.77
2022-08-03T19:41:58.356Z,36.65
2022-08-03T19:44:37.885Z,35.26
2022-08-03T19:47:10.099Z,36.02
2022-08-03T19:49:57.793Z,36.43
2022-08-03T19:52:31.528Z,35.79
2022-08-03T19:55:02.116Z,36.91
2022-08-03T19:57:32.626Z,35.83
2022-08-03T20:00:03.528Z,36.45
2022-08-03T20:02:32.219Z,36.42
2022-08-03T20:04:59.776Z,35.14
2022-08-03T20:07:28.477Z,35.71
2022-08-03T20:09:56.616Z,35.60
2022-08-03T20:12:29.203Z,35.46
2022-08-03T20:14:57.806Z,35.68
2022-08-03T20:17:54.778Z,35.37
2022-08-03T20:20:12.776Z,36.10
2022-08-03T20:22:45.482Z,36.56
2022-08-03T20:25:16.262Z,36.81
2022-08-03T20:28:05.823Z,36.41
2022-08-03T20:30:35.609Z,36.97
2022-08-03T20:33:02.425Z,36.52
2022-08-03T20:35:30.340Z,37.17
2022-08-03T20:37:57.967Z,37.79
2022-08-03T20:40:27.479Z,36.89
2022-08-03T20:42:55.505Z,37.54
2022-08-03T20:46:01.103Z,37.56
2022-08-03T20:48:10.057Z,37.42
2022-08-03T20:50:38.515Z,37.32
2022-08-03T20:53:06.760Z,38.26
2022-08-03T20:55:47.584Z,37.64
2022-08-03T20:58:20.768Z,37.83
2022-08-03T21:00:51.478Z,37.12
2022-08-03T21:03:19.036Z,37.36
2022-08-03T21:05:51.807Z,37.43
2022-08-03T21:08:25.972Z,37.25
2022-08-03T21:10:53.736Z,37.23
2022-08-03T21:13:01.365Z,36.34
2022-08-03T21:13:02.203Z,36.92
2022-08-03T21:13:37.724Z,37.27
2022-08-03T21:16:14.250Z,36.48
2022-08-03T21:18:47.545Z,37.44
2022-08-03T21:21:16.429Z,37.55
2022-08-03T21:23:49.099Z,38.24
2022-08-03T21:26:18.248Z,38.22
2022-08-03T21:28:46.952Z,38.62
2022-08-03T21:31:19.777Z,38.14
2022-08-03T21:34:11.760Z,38.25
2022-08-03T21:36:38.731Z,37.92
2022-08-03T21:39:08.336Z,38.66
2022-08-03T21:41:36.460Z,37.26
2022-08-03T21:44:04.849Z,38.38
2022-08-03T21:46:41.048Z,36.96
2022-08-03T21:50:04.617Z,38.26
2022-08-03T21:51:59.604Z,38.87
2022-08-03T21:54:35.098Z,38.66
2022-08-03T21:57:05.914Z,38.55
2022-08-03T21:59:37.373Z,39.39
2022-08-03T22:02:04.624Z,39.20
2022-08-03T22:04:50.922Z,39.26
2022-08-03T22:07:23.048Z,39.23
2022-08-03T22:09:52.050Z,38.97
2022-08-03T22:12:23.912Z,39.12
2022-08-03T22:15:00.507Z,39.13
2022-08-03T22:17:54.573Z,39.29
2022-08-03T22:20:15.946Z,39.32
2022-08-03T22:22:53.540Z,38.72
2022-08-03T22:25:28.898Z,38.83
2022-08-03T22:27:56.597Z,38.98
2022-08-03T22:30:23.486Z,38.65
2022-08-03T22:32:53.411Z,39.68
2022-08-03T22:35:21.500Z,39.89
2022-08-03T22:37:53.975Z,39.26
2022-08-03T22:40:21.014Z,39.99
2022-08-03T22:42:50.507Z,39.96
2022-08-03T22:46:10.477Z,40.01
2022-08-03T22:48:08.271Z,39.63
2022-08-03T22:50:35.699Z,39.35
2022-08-03T22:53:02.834Z,40.09
2022-08-03T22:55:29.914Z,40.14
2022-08-03T22:57:56.675Z,40.53
2022-08-03T23:00:23.938Z,40.45
2022-08-03T23:02:52.029Z,40.46
2022-08-03T23:06:01.087Z,40.16
2022-08-03T23:08:15.250Z,40.49
2022-08-03T23:10:47.021Z,39.98
2022-08-03T23:13:16.607Z,39.82
2022-08-03T23:15:52.566Z,40.17
2022-08-03T23:18:21.545Z,39.19
2022-08-03T23:20:58.141Z,38.77
2022-08-03T23:23:24.885Z,40.21
2022-08-03T23:25:51.918Z,39.69
2022-08-03T23:28:18.956Z,39.02
2022-08-03T23:30:45.859Z,38.89
2022-08-03T23:33:15.253Z,39.48
2022-08-03T23:36:22.648Z,39.73
2022-08-03T23:38:45.013Z,40.03
2022-08-03T23:41:12.825Z,39.67
2022-08-03T23:43:44.952Z,40.12
2022-08-03T23:46:21.488Z,40.24
2022-08-03T23:48:48.205Z,40.53
2022-08-03T23:51:42.209Z,40.44
2022-08-03T23:54:30.235Z,40.13
2022-08-03T23:57:15.578Z,40.26
